sensor_id;sensor_type;location;lat;lon;timestamp;temperature;humidity
2749;DHT22;1382;52.142;11.618;2023-06-04T00:02:24;18.00;31.40
2749;DHT22;1382;52.142;11.618;2023-06-04T00:04:51;18.00;31.60
2749;DHT22;1382;52.142;11.618;2023-06-04T00:07:19;18.00;31.50
2749;DHT22;1382;52.142;11.618;2023-06-04T00:09:46;17.90;31.60
2749;DHT22;1382;52.142;11.618;2023-06-04T00:12:14;17.80;31.20
2749;DHT22;1382;52.142;11.618;2023-06-04T00:14:41;17.80;31.40
2749;DHT22;1382;52.142;11.618;2023-06-04T00:17:08;17.70;31.90
2749;DHT22;1382;52.142;11.618;2023-06-04T00:19:37;17.70;31.50
2749;DHT22;1382;52.142;11.618;2023-06-04T00:22:05;17.60;31.30
2749;DHT22;1382;52.142;11.618;2023-06-04T00:24:33;17.60;31.40
2749;DHT22;1382;52.142;11.618;2023-06-04T00:27:00;17.60;31.60
2749;DHT22;1382;52.142;11.618;2023-06-04T00:29:27;17.50;31.40
2749;DHT22;1382;52.142;11.618;2023-06-04T00:31:53;17.50;31.60
2749;DHT22;1382;52.142;11.618;2023-06-04T00:34:20;17.60;31.70
2749;DHT22;1382;52.142;11.618;2023-06-04T00:36:47;17.40;31.50
2749;DHT22;1382;52.142;11.618;2023-06-04T00:39:14;17.30;31.40
2749;DHT22;1382;52.142;11.618;2023-06-04T00:41:42;17.30;31.30
2749;DHT22;1382;52.142;11.618;2023-06-04T00:44:08;17.30;31.40
2749;DHT22;1382;52.142;11.618;2023-06-04T00:46:35;17.20;31.50
2749;DHT22;1382;52.142;11.618;2023-06-04T00:49:03;17.20;31.50
2749;DHT22;1382;52.142;11.618;2023-06-04T00:51:31;17.10;31.40
2749;DHT22;1382;52.142;11.618;2023-06-04T00:53:59;17.10;31.50
2749;DHT22;1382;52.142;11.618;2023-06-04T00:56:25;17.00;31.60
2749;DHT22;1382;52.142;11.618;2023-06-04T00:58:53;17.00;31.50
2749;DHT22;1382;52.142;11.618;2023-06-04T01:01:26;17.00;31.60
2749;DHT22;1382;52.142;11.618;2023-06-04T01:03:55;16.90;32.00
2749;DHT22;1382;52.142;11.618;2023-06-04T01:06:28;16.90;31.60
2749;DHT22;1382;52.142;11.618;2023-06-04T01:08:58;16.80;31.40
2749;DHT22;1382;52.142;11.618;2023-06-04T01:11:34;16.80;31.60
2749;DHT22;1382;52.142;11.618;2023-06-04T01:14:03;16.70;31.70
2749;DHT22;1382;52.142;11.618;2023-06-04T01:16:36;16.70;31.60
2749;DHT22;1382;52.142;11.618;2023-06-04T01:19:10;16.60;31.80
2749;DHT22;1382;52.142;11.618;2023-06-04T01:21:37;16.60;31.80
2749;DHT22;1382;52.142;11.618;2023-06-04T01:24:05;16.50;31.70
2749;DHT22;1382;52.142;11.618;2023-06-04T01:26:34;16.50;31.50
2749;DHT22;1382;52.142;11.618;2023-06-04T01:29:02;16.50;31.70
2749;DHT22;1382;52.142;11.618;2023-06-04T01:31:30;16.40;31.60
2749;DHT22;1382;52.142;11.618;2023-06-04T01:33:57;16.40;31.90
2749;DHT22;1382;52.142;11.618;2023-06-04T01:36:24;16.30;31.70
2749;DHT22;1382;52.142;11.618;2023-06-04T01:38:51;16.30;31.70
2749;DHT22;1382;52.142;11.618;2023-06-04T01:41:18;16.30;31.70
2749;DHT22;1382;52.142;11.618;2023-06-04T01:43:44;16.20;31.70
2749;DHT22;1382;52.142;11.618;2023-06-04T01:46:12;16.20;31.70
2749;DHT22;1382;52.142;11.618;2023-06-04T01:48:39;16.10;31.60
2749;DHT22;1382;52.142;11.618;2023-06-04T01:51:06;16.10;31.80
2749;DHT22;1382;52.142;11.618;2023-06-04T01:53:33;16.10;31.80
2749;DHT22;1382;52.142;11.618;2023-06-04T01:56:00;16.00;31.70
2749;DHT22;1382;52.142;11.618;2023-06-04T01:58:27;16.00;31.80
2749;DHT22;1382;52.142;11.618;2023-06-04T02:00:54;15.90;31.70
2749;DHT22;1382;52.142;11.618;2023-06-04T02:03:22;15.90;31.60
2749;DHT22;1382;52.142;11.618;2023-06-04T02:05:49;15.90;31.60
2749;DHT22;1382;52.142;11.618;2023-06-04T02:08:16;15.90;31.70
2749;DHT22;1382;52.142;11.618;2023-06-04T02:10:43;15.80;31.50
2749;DHT22;1382;52.142;11.618;2023-06-04T02:13:10;15.80;31.60
2749;DHT22;1382;52.142;11.618;2023-06-04T02:15:36;15.70;31.70
2749;DHT22;1382;52.142;11.618;2023-06-04T02:18:13;15.70;31.80
2749;DHT22;1382;52.142;11.618;2023-06-04T02:20:41;15.70;32.90
2749;DHT22;1382;52.142;11.618;2023-06-04T02:23:08;15.60;31.70
2749;DHT22;1382;52.142;11.618;2023-06-04T02:25:35;15.60;31.80
2749;DHT22;1382;52.142;11.618;2023-06-04T02:28:02;15.50;31.80
2749;DHT22;1382;52.142;11.618;2023-06-04T02:30:28;15.50;31.80
2749;DHT22;1382;52.142;11.618;2023-06-04T02:32:55;15.50;31.90
2749;DHT22;1382;52.142;11.618;2023-06-04T02:35:22;15.40;32.00
2749;DHT22;1382;52.142;11.618;2023-06-04T02:37:50;15.40;32.00
2749;DHT22;1382;52.142;11.618;2023-06-04T02:40:17;15.40;32.00
2749;DHT22;1382;52.142;11.618;2023-06-04T02:42:43;15.30;32.00
2749;DHT22;1382;52.142;11.618;2023-06-04T02:45:12;15.30;32.00
2749;DHT22;1382;52.142;11.618;2023-06-04T02:47:39;15.30;31.90
2749;DHT22;1382;52.142;11.618;2023-06-04T02:50:06;15.20;31.90
2749;DHT22;1382;52.142;11.618;2023-06-04T02:52:33;15.20;32.00
2749;DHT22;1382;52.142;11.618;2023-06-04T02:55:01;15.20;32.00
2749;DHT22;1382;52.142;11.618;2023-06-04T02:57:28;15.10;32.00
2749;DHT22;1382;52.142;11.618;2023-06-04T02:59:55;15.10;31.80
2749;DHT22;1382;52.142;11.618;2023-06-04T03:02:22;15.10;31.90
2749;DHT22;1382;52.142;11.618;2023-06-04T03:04:49;15.00;32.00
2749;DHT22;1382;52.142;11.618;2023-06-04T03:07:16;15.00;32.00
2749;DHT22;1382;52.142;11.618;2023-06-04T03:09:43;14.90;32.00
2749;DHT22;1382;52.142;11.618;2023-06-04T03:12:11;14.90;31.90
2749;DHT22;1382;52.142;11.618;2023-06-04T03:14:38;14.90;32.00
2749;DHT22;1382;52.142;11.618;2023-06-04T03:17:05;14.80;32.00
2749;DHT22;1382;52.142;11.618;2023-06-04T03:19:32;14.80;32.00
2749;DHT22;1382;52.142;11.618;2023-06-04T03:21:59;14.80;32.10
2749;DHT22;1382;52.142;11.618;2023-06-04T03:24:26;14.70;31.90
2749;DHT22;1382;52.142;11.618;2023-06-04T03:26:53;14.70;31.90
2749;DHT22;1382;52.142;11.618;2023-06-04T03:29:21;14.70;32.00
2749;DHT22;1382;52.142;11.618;2023-06-04T03:31:47;14.70;31.90
2749;DHT22;1382;52.142;11.618;2023-06-04T03:34:14;14.60;31.90
2749;DHT22;1382;52.142;11.618;2023-06-04T03:36:41;14.60;31.90
2749;DHT22;1382;52.142;11.618;2023-06-04T03:39:08;14.60;32.20
2749;DHT22;1382;52.142;11.618;2023-06-04T03:41:34;14.50;32.10
2749;DHT22;1382;52.142;11.618;2023-06-04T03:44:01;14.50;31.90
2749;DHT22;1382;52.142;11.618;2023-06-04T03:46:29;14.50;32.00
2749;DHT22;1382;52.142;11.618;2023-06-04T03:48:56;14.50;32.10
2749;DHT22;1382;52.142;11.618;2023-06-04T03:51:23;14.50;32.20
2749;DHT22;1382;52.142;11.618;2023-06-04T03:53:50;14.40;32.00
2749;DHT22;1382;52.142;11.618;2023-06-04T03:56:16;14.40;32.00
2749;DHT22;1382;52.142;11.618;2023-06-04T03:58:43;14.40;32.20
2749;DHT22;1382;52.142;11.618;2023-06-04T04:01:10;14.40;32.30
2749;DHT22;1382;52.142;11.618;2023-06-04T04:03:38;14.40;32.30
2749;DHT22;1382;52.142;11.618;2023-06-04T04:06:05;14.40;32.60
2749;DHT22;1382;52.142;11.618;2023-06-04T04:08:32;14.40;32.90
2749;DHT22;1382;52.142;11.618;2023-06-04T04:10:59;14.40;33.20
2749;DHT22;1382;52.142;11.618;2023-06-04T04:13:25;14.30;33.40
2749;DHT22;1382;52.142;11.618;2023-06-04T04:15:52;14.30;33.30
2749;DHT22;1382;52.142;11.618;2023-06-04T04:18:19;14.30;33.90
2749;DHT22;1382;52.142;11.618;2023-06-04T04:20:48;14.30;33.70
2749;DHT22;1382;52.142;11.618;2023-06-04T04:23:14;14.30;33.90
2749;DHT22;1382;52.142;11.618;2023-06-04T04:25:41;14.30;34.30
2749;DHT22;1382;52.142;11.618;2023-06-04T04:28:08;14.30;34.90
2749;DHT22;1382;52.142;11.618;2023-06-04T04:30:35;14.40;34.90
2749;DHT22;1382;52.142;11.618;2023-06-04T04:33:03;14.30;34.90
2749;DHT22;1382;52.142;11.618;2023-06-04T04:35:30;14.30;35.50
2749;DHT22;1382;52.142;11.618;2023-06-04T04:37:58;14.40;35.90
2749;DHT22;1382;52.142;11.618;2023-06-04T04:40:25;14.40;35.30
2749;DHT22;1382;52.142;11.618;2023-06-04T04:42:51;14.50;35.20
2749;DHT22;1382;52.142;11.618;2023-06-04T04:45:18;14.40;35.00
2749;DHT22;1382;52.142;11.618;2023-06-04T04:47:45;14.40;35.10
2749;DHT22;1382;52.142;11.618;2023-06-04T04:50:12;14.40;34.50
2749;DHT22;1382;52.142;11.618;2023-06-04T04:52:39;14.50;35.20
2749;DHT22;1382;52.142;11.618;2023-06-04T04:55:08;14.50;35.70
2749;DHT22;1382;52.142;11.618;2023-06-04T04:57:34;14.50;35.50
2749;DHT22;1382;52.142;11.618;2023-06-04T05:00:01;14.60;36.50
2749;DHT22;1382;52.142;11.618;2023-06-04T05:02:28;14.60;35.60
2749;DHT22;1382;52.142;11.618;2023-06-04T05:04:55;14.70;35.60
2749;DHT22;1382;52.142;11.618;2023-06-04T05:07:22;14.80;36.10
2749;DHT22;1382;52.142;11.618;2023-06-04T05:09:49;14.90;35.60
2749;DHT22;1382;52.142;11.618;2023-06-04T05:12:17;15.00;35.70
2749;DHT22;1382;52.142;11.618;2023-06-04T05:14:43;15.10;35.80
2749;DHT22;1382;52.142;11.618;2023-06-04T05:17:10;15.20;35.20
2749;DHT22;1382;52.142;11.618;2023-06-04T05:19:37;15.30;34.40
2749;DHT22;1382;52.142;11.618;2023-06-04T05:22:04;15.40;35.00
2749;DHT22;1382;52.142;11.618;2023-06-04T05:24:31;15.60;35.20
2749;DHT22;1382;52.142;11.618;2023-06-04T05:26:57;15.70;35.00
2749;DHT22;1382;52.142;11.618;2023-06-04T05:29:26;15.90;35.00
2749;DHT22;1382;52.142;11.618;2023-06-04T05:31:52;16.10;35.30
2749;DHT22;1382;52.142;11.618;2023-06-04T05:34:19;16.20;34.80
2749;DHT22;1382;52.142;11.618;2023-06-04T05:36:46;16.30;35.30
2749;DHT22;1382;52.142;11.618;2023-06-04T05:39:13;16.50;35.20
2749;DHT22;1382;52.142;11.618;2023-06-04T05:41:39;16.70;34.60
2749;DHT22;1382;52.142;11.618;2023-06-04T05:44:06;16.80;34.30
2749;DHT22;1382;52.142;11.618;2023-06-04T05:46:34;17.00;34.00
2749;DHT22;1382;52.142;11.618;2023-06-04T05:49:01;17.10;34.10
2749;DHT22;1382;52.142;11.618;2023-06-04T05:51:27;17.20;33.70
2749;DHT22;1382;52.142;11.618;2023-06-04T05:53:54;17.40;33.70
2749;DHT22;1382;52.142;11.618;2023-06-04T05:56:21;17.60;33.70
2749;DHT22;1382;52.142;11.618;2023-06-04T05:58:51;17.80;33.90
2749;DHT22;1382;52.142;11.618;2023-06-04T06:01:18;18.00;34.00
2749;DHT22;1382;52.142;11.618;2023-06-04T06:03:46;18.20;34.10
2749;DHT22;1382;52.142;11.618;2023-06-04T06:06:13;18.50;34.40
2749;DHT22;1382;52.142;11.618;2023-06-04T06:08:39;18.70;33.60
2749;DHT22;1382;52.142;11.618;2023-06-04T06:11:06;18.90;33.80
2749;DHT22;1382;52.142;11.618;2023-06-04T06:13:36;19.20;33.50
2749;DHT22;1382;52.142;11.618;2023-06-04T06:16:03;19.40;33.40
2749;DHT22;1382;52.142;11.618;2023-06-04T06:18:30;19.60;33.30
2749;DHT22;1382;52.142;11.618;2023-06-04T06:20:58;19.80;32.80
2749;DHT22;1382;52.142;11.618;2023-06-04T06:23:25;20.00;32.30
2749;DHT22;1382;52.142;11.618;2023-06-04T06:25:52;20.20;31.70
2749;DHT22;1382;52.142;11.618;2023-06-04T06:28:18;20.40;31.40
2749;DHT22;1382;52.142;11.618;2023-06-04T06:30:45;20.60;30.90
2749;DHT22;1382;52.142;11.618;2023-06-04T06:33:12;20.80;30.50
2749;DHT22;1382;52.142;11.618;2023-06-04T06:35:39;21.00;30.40
2749;DHT22;1382;52.142;11.618;2023-06-04T06:38:07;21.20;30.30
2749;DHT22;1382;52.142;11.618;2023-06-04T06:40:34;21.40;30.60
2749;DHT22;1382;52.142;11.618;2023-06-04T06:43:00;21.60;30.70
2749;DHT22;1382;52.142;11.618;2023-06-04T06:45:27;21.80;30.70
2749;DHT22;1382;52.142;11.618;2023-06-04T06:47:54;21.90;30.00
2749;DHT22;1382;52.142;11.618;2023-06-04T06:50:20;22.20;30.70
2749;DHT22;1382;52.142;11.618;2023-06-04T06:52:47;22.30;30.20
2749;DHT22;1382;52.142;11.618;2023-06-04T06:55:15;22.50;30.10
2749;DHT22;1382;52.142;11.618;2023-06-04T06:57:43;22.70;29.80
2749;DHT22;1382;52.142;11.618;2023-06-04T07:00:11;22.90;29.50
2749;DHT22;1382;52.142;11.618;2023-06-04T07:02:38;23.10;29.40
2749;DHT22;1382;52.142;11.618;2023-06-04T07:05:05;23.30;29.10
2749;DHT22;1382;52.142;11.618;2023-06-04T07:07:32;23.50;28.90
2749;DHT22;1382;52.142;11.618;2023-06-04T07:09:59;23.60;28.20
2749;DHT22;1382;52.142;11.618;2023-06-04T07:12:27;23.80;28.80
2749;DHT22;1382;52.142;11.618;2023-06-04T07:14:54;24.00;27.60
2749;DHT22;1382;52.142;11.618;2023-06-04T07:17:21;24.20;28.70
2749;DHT22;1382;52.142;11.618;2023-06-04T07:19:47;24.30;28.00
2749;DHT22;1382;52.142;11.618;2023-06-04T07:22:14;24.50;28.20
2749;DHT22;1382;52.142;11.618;2023-06-04T07:24:41;24.70;28.20
2749;DHT22;1382;52.142;11.618;2023-06-04T07:27:10;24.90;27.20
2749;DHT22;1382;52.142;11.618;2023-06-04T07:29:39;25.10;26.90
2749;DHT22;1382;52.142;11.618;2023-06-04T07:32:05;25.20;26.60
2749;DHT22;1382;52.142;11.618;2023-06-04T07:34:33;25.40;26.10
2749;DHT22;1382;52.142;11.618;2023-06-04T07:36:59;25.60;27.00
2749;DHT22;1382;52.142;11.618;2023-06-04T07:39:26;25.80;26.80
2749;DHT22;1382;52.142;11.618;2023-06-04T07:41:53;26.00;26.40
2749;DHT22;1382;52.142;11.618;2023-06-04T07:44:19;26.10;26.80
2749;DHT22;1382;52.142;11.618;2023-06-04T07:46:48;26.30;27.20
2749;DHT22;1382;52.142;11.618;2023-06-04T07:49:14;26.40;27.10
2749;DHT22;1382;52.142;11.618;2023-06-04T07:51:41;26.60;27.00
2749;DHT22;1382;52.142;11.618;2023-06-04T07:54:08;26.70;26.80
2749;DHT22;1382;52.142;11.618;2023-06-04T07:56:35;26.90;26.10
2749;DHT22;1382;52.142;11.618;2023-06-04T07:59:01;27.00;25.80
2749;DHT22;1382;52.142;11.618;2023-06-04T08:01:28;27.20;26.20
2749;DHT22;1382;52.142;11.618;2023-06-04T08:03:56;27.30;25.60
2749;DHT22;1382;52.142;11.618;2023-06-04T08:06:23;27.60;25.70
2749;DHT22;1382;52.142;11.618;2023-06-04T08:08:50;27.70;25.70
2749;DHT22;1382;52.142;11.618;2023-06-04T08:11:17;27.80;25.20
2749;DHT22;1382;52.142;11.618;2023-06-04T08:13:44;27.90;26.70
2749;DHT22;1382;52.142;11.618;2023-06-04T08:16:10;28.00;26.10
2749;DHT22;1382;52.142;11.618;2023-06-04T08:18:38;28.10;26.20
2749;DHT22;1382;52.142;11.618;2023-06-04T08:21:09;28.30;25.10
2749;DHT22;1382;52.142;11.618;2023-06-04T08:23:36;28.40;25.00
2749;DHT22;1382;52.142;11.618;2023-06-04T08:26:03;28.50;24.20
2749;DHT22;1382;52.142;11.618;2023-06-04T08:28:31;28.60;25.00
2749;DHT22;1382;52.142;11.618;2023-06-04T08:30:58;28.70;25.20
2749;DHT22;1382;52.142;11.618;2023-06-04T08:33:24;28.90;25.90
2749;DHT22;1382;52.142;11.618;2023-06-04T08:35:51;29.00;25.30
2749;DHT22;1382;52.142;11.618;2023-06-04T08:38:19;29.10;25.00
2749;DHT22;1382;52.142;11.618;2023-06-04T08:40:48;29.20;25.10
2749;DHT22;1382;52.142;11.618;2023-06-04T08:43:19;29.30;25.90
2749;DHT22;1382;52.142;11.618;2023-06-04T08:45:49;29.40;25.00
2749;DHT22;1382;52.142;11.618;2023-06-04T08:48:18;29.50;24.40
2749;DHT22;1382;52.142;11.618;2023-06-04T08:50:48;29.70;23.60
2749;DHT22;1382;52.142;11.618;2023-06-04T08:53:15;29.70;21.90
2749;DHT22;1382;52.142;11.618;2023-06-04T08:55:43;29.90;21.50
2749;DHT22;1382;52.142;11.618;2023-06-04T08:58:11;30.00;24.00
2749;DHT22;1382;52.142;11.618;2023-06-04T09:00:38;30.10;22.30
2749;DHT22;1382;52.142;11.618;2023-06-04T09:03:05;30.10;23.30
2749;DHT22;1382;52.142;11.618;2023-06-04T09:05:33;30.10;24.10
2749;DHT22;1382;52.142;11.618;2023-06-04T09:08:01;30.20;24.50
2749;DHT22;1382;52.142;11.618;2023-06-04T09:10:31;30.30;24.50
2749;DHT22;1382;52.142;11.618;2023-06-04T09:13:02;30.30;24.40
2749;DHT22;1382;52.142;11.618;2023-06-04T09:15:30;30.30;23.80
2749;DHT22;1382;52.142;11.618;2023-06-04T09:17:56;30.40;23.50
2749;DHT22;1382;52.142;11.618;2023-06-04T09:20:24;30.50;24.40
2749;DHT22;1382;52.142;11.618;2023-06-04T09:22:51;30.50;24.40
2749;DHT22;1382;52.142;11.618;2023-06-04T09:25:22;30.60;24.90
2749;DHT22;1382;52.142;11.618;2023-06-04T09:27:49;30.60;25.20
2749;DHT22;1382;52.142;11.618;2023-06-04T09:30:17;30.70;24.80
2749;DHT22;1382;52.142;11.618;2023-06-04T09:32:44;30.70;23.80
2749;DHT22;1382;52.142;11.618;2023-06-04T09:35:12;30.80;25.40
2749;DHT22;1382;52.142;11.618;2023-06-04T09:37:40;30.90;23.90
2749;DHT22;1382;52.142;11.618;2023-06-04T09:40:08;31.00;24.00
2749;DHT22;1382;52.142;11.618;2023-06-04T09:42:42;31.10;24.20
2749;DHT22;1382;52.142;11.618;2023-06-04T09:45:10;31.20;25.80
2749;DHT22;1382;52.142;11.618;2023-06-04T09:47:42;31.20;24.00
2749;DHT22;1382;52.142;11.618;2023-06-04T09:50:10;31.30;25.00
2749;DHT22;1382;52.142;11.618;2023-06-04T09:52:37;31.40;22.60
2749;DHT22;1382;52.142;11.618;2023-06-04T09:55:14;31.50;23.20
2749;DHT22;1382;52.142;11.618;2023-06-04T09:57:44;31.60;24.80
2749;DHT22;1382;52.142;11.618;2023-06-04T10:00:14;31.60;25.00
2749;DHT22;1382;52.142;11.618;2023-06-04T10:02:44;31.70;25.30
2749;DHT22;1382;52.142;11.618;2023-06-04T10:05:11;31.80;24.70
2749;DHT22;1382;52.142;11.618;2023-06-04T10:07:39;31.90;24.60
2749;DHT22;1382;52.142;11.618;2023-06-04T10:10:11;32.00;25.00
2749;DHT22;1382;52.142;11.618;2023-06-04T10:12:39;32.10;23.30
2749;DHT22;1382;52.142;11.618;2023-06-04T10:15:11;32.10;22.70
2749;DHT22;1382;52.142;11.618;2023-06-04T10:17:38;32.20;24.30
2749;DHT22;1382;52.142;11.618;2023-06-04T10:20:08;32.30;24.70
2749;DHT22;1382;52.142;11.618;2023-06-04T10:22:35;32.30;24.10
2749;DHT22;1382;52.142;11.618;2023-06-04T10:25:02;32.60;25.20
2749;DHT22;1382;52.142;11.618;2023-06-04T10:27:30;32.50;24.30
2749;DHT22;1382;52.142;11.618;2023-06-04T10:29:58;32.50;23.80
2749;DHT22;1382;52.142;11.618;2023-06-04T10:32:27;32.60;23.50
2749;DHT22;1382;52.142;11.618;2023-06-04T10:34:54;32.60;23.90
2749;DHT22;1382;52.142;11.618;2023-06-04T10:37:23;32.60;24.20
2749;DHT22;1382;52.142;11.618;2023-06-04T10:39:51;32.60;23.30
2749;DHT22;1382;52.142;11.618;2023-06-04T10:42:18;32.70;24.60
2749;DHT22;1382;52.142;11.618;2023-06-04T10:44:47;32.80;23.80
2749;DHT22;1382;52.142;11.618;2023-06-04T10:47:19;32.80;23.10
2749;DHT22;1382;52.142;11.618;2023-06-04T10:49:46;32.90;23.00
2749;DHT22;1382;52.142;11.618;2023-06-04T10:52:13;32.90;24.50
2749;DHT22;1382;52.142;11.618;2023-06-04T10:54:42;33.00;24.60
2749;DHT22;1382;52.142;11.618;2023-06-04T10:57:29;33.00;25.00
2749;DHT22;1382;52.142;11.618;2023-06-04T10:59:56;33.20;24.50
2749;DHT22;1382;52.142;11.618;2023-06-04T11:02:24;33.20;20.20
2749;DHT22;1382;52.142;11.618;2023-06-04T11:04:59;33.20;24.30
2749;DHT22;1382;52.142;11.618;2023-06-04T11:07:26;33.30;23.70
2749;DHT22;1382;52.142;11.618;2023-06-04T11:09:55;33.30;24.40
2749;DHT22;1382;52.142;11.618;2023-06-04T11:12:22;33.40;24.20
2749;DHT22;1382;52.142;11.618;2023-06-04T11:14:55;33.40;24.40
2749;DHT22;1382;52.142;11.618;2023-06-04T11:17:22;33.50;24.00
2749;DHT22;1382;52.142;11.618;2023-06-04T11:19:48;33.60;24.50
2749;DHT22;1382;52.142;11.618;2023-06-04T11:22:15;33.60;23.30
2749;DHT22;1382;52.142;11.618;2023-06-04T11:24:42;33.70;23.70
2749;DHT22;1382;52.142;11.618;2023-06-04T11:27:10;33.80;22.30
2749;DHT22;1382;52.142;11.618;2023-06-04T11:29:54;33.90;20.10
2749;DHT22;1382;52.142;11.618;2023-06-04T11:32:21;33.90;20.00
2749;DHT22;1382;52.142;11.618;2023-06-04T11:34:48;33.90;20.30
2749;DHT22;1382;52.142;11.618;2023-06-04T11:37:15;33.80;20.80
2749;DHT22;1382;52.142;11.618;2023-06-04T11:39:42;33.90;21.60
2749;DHT22;1382;52.142;11.618;2023-06-04T11:42:10;33.90;21.60
2749;DHT22;1382;52.142;11.618;2023-06-04T11:44:37;33.90;20.70
2749;DHT22;1382;52.142;11.618;2023-06-04T11:47:05;34.00;20.20
2749;DHT22;1382;52.142;11.618;2023-06-04T11:49:34;34.00;21.60
2749;DHT22;1382;52.142;11.618;2023-06-04T11:52:02;34.20;23.60
2749;DHT22;1382;52.142;11.618;2023-06-04T11:54:30;34.10;23.40
2749;DHT22;1382;52.142;11.618;2023-06-04T11:56:58;34.10;22.20
2749;DHT22;1382;52.142;11.618;2023-06-04T11:59:27;34.20;22.30
2749;DHT22;1382;52.142;11.618;2023-06-04T12:01:54;34.20;22.50
2749;DHT22;1382;52.142;11.618;2023-06-04T12:04:20;34.30;20.60
2749;DHT22;1382;52.142;11.618;2023-06-04T12:06:51;34.40;21.70
2749;DHT22;1382;52.142;11.618;2023-06-04T12:09:22;34.40;21.40
2749;DHT22;1382;52.142;11.618;2023-06-04T12:11:49;34.50;22.20
2749;DHT22;1382;52.142;11.618;2023-06-04T12:14:16;34.60;20.00
2749;DHT22;1382;52.142;11.618;2023-06-04T12:16:54;34.70;20.50
2749;DHT22;1382;52.142;11.618;2023-06-04T12:19:21;34.70;23.50
2749;DHT22;1382;52.142;11.618;2023-06-04T12:21:59;34.70;23.40
2749;DHT22;1382;52.142;11.618;2023-06-04T12:24:25;34.90;24.00
2749;DHT22;1382;52.142;11.618;2023-06-04T12:27:01;34.90;23.50
2749;DHT22;1382;52.142;11.618;2023-06-04T12:29:28;35.00;22.20
2749;DHT22;1382;52.142;11.618;2023-06-04T12:32:04;35.00;22.30
2749;DHT22;1382;52.142;11.618;2023-06-04T12:34:31;35.20;23.00
2749;DHT22;1382;52.142;11.618;2023-06-04T12:36:58;35.20;22.30
2749;DHT22;1382;52.142;11.618;2023-06-04T12:39:25;35.30;21.10
2749;DHT22;1382;52.142;11.618;2023-06-04T12:41:52;35.30;22.40
2749;DHT22;1382;52.142;11.618;2023-06-04T12:44:19;35.30;21.90
2749;DHT22;1382;52.142;11.618;2023-06-04T12:46:45;35.30;21.70
2749;DHT22;1382;52.142;11.618;2023-06-04T12:49:13;35.30;22.50
2749;DHT22;1382;52.142;11.618;2023-06-04T12:51:40;35.30;22.40
2749;DHT22;1382;52.142;11.618;2023-06-04T12:54:07;35.30;21.30
2749;DHT22;1382;52.142;11.618;2023-06-04T12:56:34;35.30;22.10
2749;DHT22;1382;52.142;11.618;2023-06-04T12:59:01;35.40;22.50
2749;DHT22;1382;52.142;11.618;2023-06-04T13:01:28;35.30;21.90
2749;DHT22;1382;52.142;11.618;2023-06-04T13:03:55;35.30;21.70
2749;DHT22;1382;52.142;11.618;2023-06-04T13:06:23;35.30;21.10
2749;DHT22;1382;52.142;11.618;2023-06-04T13:08:50;35.30;18.80
2749;DHT22;1382;52.142;11.618;2023-06-04T13:11:17;35.30;18.20
2749;DHT22;1382;52.142;11.618;2023-06-04T13:13:44;35.30;18.40
2749;DHT22;1382;52.142;11.618;2023-06-04T13:16:10;35.30;19.50
2749;DHT22;1382;52.142;11.618;2023-06-04T13:18:38;35.30;21.60
2749;DHT22;1382;52.142;11.618;2023-06-04T13:21:04;35.30;21.60
2749;DHT22;1382;52.142;11.618;2023-06-04T13:23:33;35.30;18.30
2749;DHT22;1382;52.142;11.618;2023-06-04T13:26:14;35.20;18.60
2749;DHT22;1382;52.142;11.618;2023-06-04T13:28:41;35.20;20.70
2749;DHT22;1382;52.142;11.618;2023-06-04T13:31:08;35.30;20.60
2749;DHT22;1382;52.142;11.618;2023-06-04T13:33:35;35.30;20.30
2749;DHT22;1382;52.142;11.618;2023-06-04T13:36:02;35.30;21.70
2749;DHT22;1382;52.142;11.618;2023-06-04T13:38:30;35.40;21.00
2749;DHT22;1382;52.142;11.618;2023-06-04T13:40:58;35.40;21.30
2749;DHT22;1382;52.142;11.618;2023-06-04T13:43:25;35.40;22.70
2749;DHT22;1382;52.142;11.618;2023-06-04T13:45:52;35.40;22.40
2749;DHT22;1382;52.142;11.618;2023-06-04T13:48:19;35.40;21.70
2749;DHT22;1382;52.142;11.618;2023-06-04T13:50:45;35.50;20.80
2749;DHT22;1382;52.142;11.618;2023-06-04T13:53:12;35.50;21.20
2749;DHT22;1382;52.142;11.618;2023-06-04T13:55:39;35.60;21.00
2749;DHT22;1382;52.142;11.618;2023-06-04T13:58:07;35.60;22.10
2749;DHT22;1382;52.142;11.618;2023-06-04T14:00:34;35.60;20.40
2749;DHT22;1382;52.142;11.618;2023-06-04T14:03:01;35.70;20.80
2749;DHT22;1382;52.142;11.618;2023-06-04T14:05:28;35.70;19.70
2749;DHT22;1382;52.142;11.618;2023-06-04T14:07:55;35.70;18.40
2749;DHT22;1382;52.142;11.618;2023-06-04T14:10:21;35.70;16.20
2749;DHT22;1382;52.142;11.618;2023-06-04T14:12:48;35.70;17.60
2749;DHT22;1382;52.142;11.618;2023-06-04T14:15:16;35.50;18.40
2749;DHT22;1382;52.142;11.618;2023-06-04T14:17:43;35.50;18.30
2749;DHT22;1382;52.142;11.618;2023-06-04T14:20:10;35.40;16.80
2749;DHT22;1382;52.142;11.618;2023-06-04T14:22:37;35.40;18.70
2749;DHT22;1382;52.142;11.618;2023-06-04T14:25:05;35.40;16.90
2749;DHT22;1382;52.142;11.618;2023-06-04T14:27:33;35.30;18.20
2749;DHT22;1382;52.142;11.618;2023-06-04T14:30:01;35.30;19.60
2749;DHT22;1382;52.142;11.618;2023-06-04T14:32:29;35.20;19.20
2749;DHT22;1382;52.142;11.618;2023-06-04T14:34:55;35.30;19.60
2749;DHT22;1382;52.142;11.618;2023-06-04T14:37:22;35.20;20.70
2749;DHT22;1382;52.142;11.618;2023-06-04T14:39:49;35.20;20.60
2749;DHT22;1382;52.142;11.618;2023-06-04T14:42:16;35.30;19.70
2749;DHT22;1382;52.142;11.618;2023-06-04T14:44:43;35.30;18.40
2749;DHT22;1382;52.142;11.618;2023-06-04T14:47:10;35.30;16.90
2749;DHT22;1382;52.142;11.618;2023-06-04T14:49:38;35.30;16.70
2749;DHT22;1382;52.142;11.618;2023-06-04T14:52:05;35.30;17.70
2749;DHT22;1382;52.142;11.618;2023-06-04T14:54:33;35.30;18.20
2749;DHT22;1382;52.142;11.618;2023-06-04T14:56:59;35.30;19.70
2749;DHT22;1382;52.142;11.618;2023-06-04T14:59:26;35.30;18.80
2749;DHT22;1382;52.142;11.618;2023-06-04T15:01:53;35.30;18.00
2749;DHT22;1382;52.142;11.618;2023-06-04T15:04:20;35.30;19.90
2749;DHT22;1382;52.142;11.618;2023-06-04T15:06:48;35.30;19.00
2749;DHT22;1382;52.142;11.618;2023-06-04T15:09:14;35.30;17.90
2749;DHT22;1382;52.142;11.618;2023-06-04T15:11:41;35.30;17.70
2749;DHT22;1382;52.142;11.618;2023-06-04T15:14:08;35.40;18.40
2749;DHT22;1382;52.142;11.618;2023-06-04T15:16:35;35.30;18.60
2749;DHT22;1382;52.142;11.618;2023-06-04T15:19:02;35.30;18.80
2749;DHT22;1382;52.142;11.618;2023-06-04T15:21:29;35.30;21.20
2749;DHT22;1382;52.142;11.618;2023-06-04T15:23:57;35.30;20.00
2749;DHT22;1382;52.142;11.618;2023-06-04T15:26:24;35.30;21.30
2749;DHT22;1382;52.142;11.618;2023-06-04T15:28:51;35.30;20.80
2749;DHT22;1382;52.142;11.618;2023-06-04T15:31:18;35.30;20.50
2749;DHT22;1382;52.142;11.618;2023-06-04T15:33:45;35.30;18.90
2749;DHT22;1382;52.142;11.618;2023-06-04T15:36:11;35.20;19.60
2749;DHT22;1382;52.142;11.618;2023-06-04T15:38:38;35.10;19.00
2749;DHT22;1382;52.142;11.618;2023-06-04T15:41:06;35.00;19.30
2749;DHT22;1382;52.142;11.618;2023-06-04T15:43:34;35.00;18.50
2749;DHT22;1382;52.142;11.618;2023-06-04T15:46:00;35.10;17.90
2749;DHT22;1382;52.142;11.618;2023-06-04T15:48:27;35.10;20.30